Time;durP1;ratioP1;P1;durP2;ratioP2;P2;SDS_P1;SDS_P2;PMS_P1;PMS_P2;Temp;Humidity;BMP_temperature;BMP_pressure;BME280_temperature;BME280_humidity;BME280_pressure;Samples;Min_cycle;Max_cycle;Signal;HPM_P1;HPM_P2
2024/03/11 00:00:59;;;;;;;;;;;8.80;99.90;;;;;;2066900;28;20016;-76
2024/03/11 00:02:00;;;;;;;;;;;8.80;99.90;;;;;;2067570;28;19918;-76
2024/03/11 00:03:01;;;;;;;;;;;8.80;99.90;;;;;;2067327;28;19917;-76
2024/03/11 00:04:01;;;;;;;;;;;8.70;99.90;;;;;;2067594;28;20401;-77
2024/03/11 00:05:02;;;;;;;;;;;8.80;99.90;;;;;;2066720;28;20280;-77
2024/03/11 00:06:03;;;;;;;;;;;8.70;99.90;;;;;;2066773;28;20150;-77
2024/03/11 00:07:04;;;;;;;;;;;8.60;99.90;;;;;;2066915;28;19914;-79
2024/03/11 00:08:05;;;;;;;;;;;8.50;99.90;;;;;;2058597;28;19913;-77
2024/03/11 00:09:15;;;;;;;;;;;8.40;99.90;;;;;;2067737;28;20342;-77
2024/03/11 00:10:18;;;;;;;;;;;8.40;99.90;;;;;;2065087;28;19921;-78
2024/03/11 00:11:18;;;;;;;;;;;8.30;99.90;;;;;;2060693;28;20312;-77
2024/03/11 00:12:22;;;;;;;;;;;8.20;99.90;;;;;;2060778;28;19914;-76
2024/03/11 00:13:23;;;;;;;;;;;8.20;99.90;;;;;;2061002;28;19968;-76
2024/03/11 00:14:28;;;;;;;;;;;8.20;99.90;;;;;;2068712;28;19914;-78
2024/03/11 00:15:30;;;;;;;;;;;8.10;99.90;;;;;;2068947;28;19924;-77
2024/03/11 00:16:30;;;;;;;;;;;8.10;99.90;;;;;;2068462;28;20284;-77
2024/03/11 00:17:32;;;;;;;;;;;8.10;99.90;;;;;;2068406;28;19917;-77
2024/03/11 00:18:33;;;;;;;;;;;8.10;99.90;;;;;;2069146;28;19956;-75
2024/03/11 00:19:34;;;;;;;;;;;8.10;99.90;;;;;;2068848;28;20232;-75
2024/03/11 00:20:35;;;;;;;;;;;8.00;99.90;;;;;;2068445;28;20382;-76
2024/03/11 00:21:36;;;;;;;;;;;8.00;99.90;;;;;;2069009;28;19927;-75
2024/03/11 00:22:36;;;;;;;;;;;8.00;99.90;;;;;;2068429;28;20407;-75
2024/03/11 00:23:37;;;;;;;;;;;8.10;99.90;;;;;;2067942;28;19918;-75
2024/03/11 00:24:38;;;;;;;;;;;8.00;99.90;;;;;;2068037;28;19929;-75
2024/03/11 00:25:39;;;;;;;;;;;8.10;99.90;;;;;;2064221;28;20412;-76
2024/03/11 00:26:40;;;;;;;;;;;8.10;99.90;;;;;;2060027;28;19921;-76
2024/03/11 00:27:40;;;;;;;;;;;8.20;99.90;;;;;;2060041;28;20001;-75
2024/03/11 00:28:41;;;;;;;;;;;8.10;99.90;;;;;;2068074;28;20171;-75
2024/03/11 00:29:41;;;;;;;;;;;8.20;99.90;;;;;;2068095;28;19922;-76
2024/03/11 00:30:42;;;;;;;;;;;8.20;99.90;;;;;;2067646;28;20308;-75
2024/03/11 00:31:42;;;;;;;;;;;8.20;99.90;;;;;;2063418;28;20012;-76
2024/03/11 00:32:45;;;;;;;;;;;8.20;99.90;;;;;;2068004;28;19967;-76
2024/03/11 00:33:45;;;;;;;;;;;8.20;99.90;;;;;;2068685;28;19917;-75
2024/03/11 00:34:46;;;;;;;;;;;8.20;99.90;;;;;;2067734;28;19948;-76
2024/03/11 00:35:46;;;;;;;;;;;8.30;99.90;;;;;;2068070;28;19925;-76
2024/03/11 00:36:48;;;;;;;;;;;8.30;99.90;;;;;;2072438;28;20004;-76
2024/03/11 00:37:48;;;;;;;;;;;8.30;99.90;;;;;;2068819;28;20016;-76
2024/03/11 00:38:48;;;;;;;;;;;8.30;99.90;;;;;;2067840;28;19918;-76
2024/03/11 00:39:49;;;;;;;;;;;8.30;99.90;;;;;;2060147;28;20390;-77
2024/03/11 00:40:50;;;;;;;;;;;8.20;99.90;;;;;;2052003;28;20009;-77
2024/03/11 00:41:51;;;;;;;;;;;8.30;99.90;;;;;;2055934;28;19914;-75
2024/03/11 00:42:52;;;;;;;;;;;8.20;99.90;;;;;;2067986;28;19917;-76
2024/03/11 00:43:52;;;;;;;;;;;8.10;99.90;;;;;;2068026;28;19918;-76
2024/03/11 00:44:53;;;;;;;;;;;8.10;99.90;;;;;;2067828;28;19991;-77
2024/03/11 00:45:53;;;;;;;;;;;8.10;99.90;;;;;;2067973;28;19913;-77
2024/03/11 00:46:54;;;;;;;;;;;8.10;99.90;;;;;;2068091;28;19913;-77
2024/03/11 00:47:55;;;;;;;;;;;8.00;99.90;;;;;;2067803;28;20000;-77
2024/03/11 00:48:58;;;;;;;;;;;8.00;99.90;;;;;;2068461;28;20012;-77
2024/03/11 00:49:59;;;;;;;;;;;8.00;99.90;;;;;;2067855;28;20019;-78
2024/03/11 00:50:59;;;;;;;;;;;8.00;99.90;;;;;;2067769;28;19917;-77
2024/03/11 00:52:00;;;;;;;;;;;7.90;99.90;;;;;;2068850;28;19920;-78
2024/03/11 00:53:01;;;;;;;;;;;7.90;99.90;;;;;;2068857;28;20414;-77
2024/03/11 00:54:01;;;;;;;;;;;7.90;99.90;;;;;;2060324;28;19925;-76
2024/03/11 00:55:03;;;;;;;;;;;7.80;99.90;;;;;;2062946;28;19924;-77
2024/03/11 00:56:06;;;;;;;;;;;7.80;99.90;;;;;;2068459;28;19927;-79
2024/03/11 00:57:07;;;;;;;;;;;7.80;99.90;;;;;;2067957;28;20024;-76
2024/03/11 00:58:07;;;;;;;;;;;7.70;99.90;;;;;;2068001;28;19917;-76
2024/03/11 00:59:09;;;;;;;;;;;7.70;99.90;;;;;;2067629;28;19921;-76
2024/03/11 01:00:13;;;;;;;;;;;7.70;99.90;;;;;;2063375;28;20376;-76
2024/03/11 01:01:14;;;;;;;;;;;7.70;99.90;;;;;;2068573;28;19964;-76
2024/03/11 01:02:14;;;;;;;;;;;7.70;99.90;;;;;;2067799;28;19952;-76
2024/03/11 01:03:15;;;;;;;;;;;7.70;99.90;;;;;;2059594;28;19953;-76
2024/03/11 01:04:16;;;;;;;;;;;7.70;99.90;;;;;;2059672;28;20336;-76
2024/03/11 01:05:16;;;;;;;;;;;7.60;99.90;;;;;;2059531;28;19918;-75
2024/03/11 01:06:17;;;;;;;;;;;7.60;99.90;;;;;;2059418;28;19913;-76
2024/03/11 01:07:18;;;;;;;;;;;7.60;99.90;;;;;;2067727;28;20358;-76
2024/03/11 01:08:19;;;;;;;;;;;7.50;99.90;;;;;;2068343;28;19917;-76
2024/03/11 01:09:20;;;;;;;;;;;7.50;99.90;;;;;;2069674;28;20352;-75
2024/03/11 01:10:22;;;;;;;;;;;7.50;99.90;;;;;;2068497;28;20010;-76
2024/03/11 01:11:23;;;;;;;;;;;7.60;99.90;;;;;;2068485;28;19917;-75
2024/03/11 01:12:23;;;;;;;;;;;7.60;99.90;;;;;;2068433;28;19955;-76
2024/03/11 01:13:24;;;;;;;;;;;7.60;99.90;;;;;;2068576;28;20491;-74
2024/03/11 01:14:25;;;;;;;;;;;7.60;99.90;;;;;;2063459;28;20305;-72
2024/03/11 01:15:25;;;;;;;;;;;7.70;99.90;;;;;;2059769;28;20446;-74
2024/03/11 01:16:26;;;;;;;;;;;7.60;99.90;;;;;;2068690;28;19931;-82
2024/03/11 01:17:27;;;;;;;;;;;7.60;99.90;;;;;;2068989;28;19918;-78
2024/03/11 01:18:27;;;;;;;;;;;7.60;99.90;;;;;;2067572;28;20399;-78
2024/03/11 01:19:28;;;;;;;;;;;7.60;99.90;;;;;;2059714;28;19918;-78
2024/03/11 01:20:29;;;;;;;;;;;7.50;99.90;;;;;;2059369;28;19984;-78
2024/03/11 01:21:29;;;;;;;;;;;7.50;99.90;;;;;;2060025;28;19917;-76
2024/03/11 01:22:30;;;;;;;;;;;7.50;99.90;;;;;;2067823;28;19949;-78
2024/03/11 01:23:30;;;;;;;;;;;7.50;99.90;;;;;;2068556;28;19968;-78
2024/03/11 01:24:31;;;;;;;;;;;7.50;99.90;;;;;;2067630;28;20483;-78
2024/03/11 01:25:32;;;;;;;;;;;7.50;99.90;;;;;;2059966;28;19917;-78
2024/03/11 01:26:32;;;;;;;;;;;7.60;99.90;;;;;;2067816;28;20330;-77
2024/03/11 01:27:33;;;;;;;;;;;7.60;99.90;;;;;;2068595;28;20268;-77
2024/03/11 01:28:33;;;;;;;;;;;7.60;99.90;;;;;;2059510;28;20304;-78
2024/03/11 01:29:34;;;;;;;;;;;7.50;99.90;;;;;;2059703;28;19921;-78
2024/03/11 01:30:37;;;;;;;;;;;7.50;99.90;;;;;;2068244;28;19917;-77
2024/03/11 01:31:38;;;;;;;;;;;7.40;99.90;;;;;;2064055;28;19917;-77
2024/03/11 01:32:39;;;;;;;;;;;7.40;99.90;;;;;;2068326;28;19917;-78
2024/03/11 01:33:39;;;;;;;;;;;7.30;99.90;;;;;;2068284;28;19943;-78
2024/03/11 01:34:44;;;;;;;;;;;7.30;99.90;;;;;;2067440;28;20413;-77
2024/03/11 01:35:44;;;;;;;;;;;7.30;99.90;;;;;;2071825;28;19913;-77
2024/03/11 01:36:45;;;;;;;;;;;7.30;99.90;;;;;;2067587;28;19964;-77
2024/03/11 01:37:45;;;;;;;;;;;7.30;99.90;;;;;;2067734;28;19913;-78
2024/03/11 01:38:48;;;;;;;;;;;7.30;99.90;;;;;;2070402;28;20004;-76
2024/03/11 01:39:51;;;;;;;;;;;7.30;99.90;;;;;;2060873;28;19924;-77
2024/03/11 01:40:52;;;;;;;;;;;7.20;99.90;;;;;;2057472;28;19936;-75
2024/03/11 01:41:53;;;;;;;;;;;7.20;99.90;;;;;;2066720;28;19921;-74
2024/03/11 01:42:54;;;;;;;;;;;7.20;99.90;;;;;;2067726;28;20012;-75
2024/03/11 01:43:56;;;;;;;;;;;7.20;99.90;;;;;;2067277;28;19914;-75
2024/03/11 01:44:56;;;;;;;;;;;7.20;99.90;;;;;;2067465;28;19918;-74
2024/03/11 01:45:57;;;;;;;;;;;7.30;99.90;;;;;;2068117;28;19921;-74
2024/03/11 01:46:58;;;;;;;;;;;7.30;99.90;;;;;;2068277;28;19933;-75
2024/03/11 01:47:59;;;;;;;;;;;7.20;99.90;;;;;;2068188;28;19913;-75
2024/03/11 01:49:00;;;;;;;;;;;7.20;99.90;;;;;;2068228;28;19956;-75
2024/03/11 01:50:01;;;;;;;;;;;7.30;99.90;;;;;;2068100;28;19914;-75
2024/03/11 01:51:03;;;;;;;;;;;7.20;99.90;;;;;;2067801;28;20004;-74
2024/03/11 01:52:06;;;;;;;;;;;7.30;99.90;;;;;;2068038;28;19914;-75
2024/03/11 01:53:09;;;;;;;;;;;7.20;99.90;;;;;;2063467;28;20477;-75
2024/03/11 01:54:10;;;;;;;;;;;7.20;99.90;;;;;;2068511;28;20004;-75
2024/03/11 01:55:12;;;;;;;;;;;7.20;99.90;;;;;;2078574;28;19918;-74
2024/03/11 01:56:12;;;;;;;;;;;7.20;99.90;;;;;;2068091;28;20159;-75
2024/03/11 01:57:15;;;;;;;;;;;7.20;99.90;;;;;;2068124;28;19925;-75
2024/03/11 01:58:18;;;;;;;;;;;7.20;99.90;;;;;;2067963;28;19960;-75
2024/03/11 01:59:20;;;;;;;;;;;7.20;99.90;;;;;;2067056;28;19937;-74
2024/03/11 02:00:22;;;;;;;;;;;7.20;99.90;;;;;;2067392;28;20389;-74
2024/03/11 02:01:23;;;;;;;;;;;7.20;99.90;;;;;;2068170;28;20024;-75
2024/03/11 02:02:24;;;;;;;;;;;7.20;99.90;;;;;;2067254;28;19940;-75
2024/03/11 02:03:25;;;;;;;;;;;7.20;99.90;;;;;;2062568;28;19917;-74
2024/03/11 02:04:26;;;;;;;;;;;7.20;99.90;;;;;;2067025;28;20035;-75
2024/03/11 02:05:27;;;;;;;;;;;7.20;99.90;;;;;;2059316;28;19913;-75
2024/03/11 02:06:28;;;;;;;;;;;7.20;99.90;;;;;;2059338;28;19924;-75
2024/03/11 02:07:29;;;;;;;;;;;7.20;99.90;;;;;;2067325;28;19917;-75
2024/03/11 02:08:31;;;;;;;;;;;7.20;99.90;;;;;;2068105;28;19948;-76
2024/03/11 02:09:31;;;;;;;;;;;7.10;99.90;;;;;;2067849;28;19989;-75
2024/03/11 02:10:33;;;;;;;;;;;7.10;99.90;;;;;;2067829;28;20018;-75
2024/03/11 02:11:33;;;;;;;;;;;7.10;99.90;;;;;;2067992;28;20164;-75
2024/03/11 02:12:35;;;;;;;;;;;7.10;99.90;;;;;;2067828;28;19967;-75
2024/03/11 02:13:35;;;;;;;;;;;7.10;99.90;;;;;;2067029;28;20189;-75
2024/03/11 02:14:36;;;;;;;;;;;7.10;99.90;;;;;;2059274;28;20178;-74
2024/03/11 02:15:36;;;;;;;;;;;7.10;99.90;;;;;;2059005;28;19917;-74
2024/03/11 02:16:37;;;;;;;;;;;7.10;99.90;;;;;;2059180;28;19917;-75
2024/03/11 02:17:39;;;;;;;;;;;7.10;99.90;;;;;;2067370;28;20715;-75
2024/03/11 02:18:39;;;;;;;;;;;7.10;99.90;;;;;;2055251;28;20419;-74
2024/03/11 02:19:41;;;;;;;;;;;7.10;99.90;;;;;;2059076;28;20021;-74
2024/03/11 02:20:42;;;;;;;;;;;7.20;99.90;;;;;;2075054;28;19932;-74
2024/03/11 02:21:46;;;;;;;;;;;7.20;99.90;;;;;;2072941;28;20043;-75
2024/03/11 02:22:50;;;;;;;;;;;7.20;99.90;;;;;;2075356;28;19913;-74
2024/03/11 02:23:51;;;;;;;;;;;7.20;99.90;;;;;;2066898;28;20004;-74
2024/03/11 02:24:51;;;;;;;;;;;7.20;99.90;;;;;;2067058;28;19922;-74
2024/03/11 02:25:51;;;;;;;;;;;7.20;99.90;;;;;;2068067;28;20374;-77
2024/03/11 02:26:52;;;;;;;;;;;7.20;99.90;;;;;;2067117;28;20246;-74
2024/03/11 02:27:53;;;;;;;;;;;7.20;99.90;;;;;;2067105;28;19917;-75
2024/03/11 02:28:53;;;;;;;;;;;7.20;99.90;;;;;;2067980;28;19925;-74
2024/03/11 02:29:54;;;;;;;;;;;7.20;99.90;;;;;;2067047;28;20283;-74
2024/03/11 02:30:56;;;;;;;;;;;7.20;99.90;;;;;;2058911;28;19914;-74
2024/03/11 02:31:57;;;;;;;;;;;7.20;99.90;;;;;;2065070;28;20020;-75
2024/03/11 02:32:57;;;;;;;;;;;7.30;99.90;;;;;;2066772;28;19917;-75
2024/03/11 02:33:58;;;;;;;;;;;7.20;99.90;;;;;;2059074;28;19918;-76
2024/03/11 02:34:58;;;;;;;;;;;7.20;99.90;;;;;;2067825;28;20349;-75
2024/03/11 02:35:58;;;;;;;;;;;7.20;99.90;;;;;;2069082;28;19920;-75
2024/03/11 02:37:01;;;;;;;;;;;7.30;99.90;;;;;;2068142;28;19921;-75
2024/03/11 02:38:01;;;;;;;;;;;7.30;99.90;;;;;;2068233;28;19925;-75
2024/03/11 02:39:05;;;;;;;;;;;7.30;99.90;;;;;;2068765;28;20594;-75
2024/03/11 02:40:09;;;;;;;;;;;7.40;99.90;;;;;;2068343;28;20220;-74
2024/03/11 02:41:10;;;;;;;;;;;7.40;99.90;;;;;;2066441;28;20439;-75
2024/03/11 02:42:10;;;;;;;;;;;7.40;99.90;;;;;;2067767;28;20450;-74
2024/03/11 02:43:11;;;;;;;;;;;7.40;99.90;;;;;;2068053;28;19923;-74
2024/03/11 02:44:15;;;;;;;;;;;7.30;99.90;;;;;;2067107;28;20012;-75
2024/03/11 02:45:19;;;;;;;;;;;7.30;99.90;;;;;;2067160;28;20434;-75
2024/03/11 02:46:20;;;;;;;;;;;7.30;99.90;;;;;;2063368;28;19969;-75
2024/03/11 02:47:20;;;;;;;;;;;7.20;99.90;;;;;;2063119;28;20474;-75
2024/03/11 02:48:21;;;;;;;;;;;7.20;99.90;;;;;;2067085;28;19941;-75
2024/03/11 02:49:22;;;;;;;;;;;7.20;99.90;;;;;;2067039;28;19913;-75
2024/03/11 02:50:22;;;;;;;;;;;7.10;99.90;;;;;;2067195;28;19936;-75
2024/03/11 02:51:23;;;;;;;;;;;7.10;99.90;;;;;;2063624;28;20296;-75
2024/03/11 02:52:24;;;;;;;;;;;7.10;99.90;;;;;;2067045;28;20424;-75
2024/03/11 02:53:28;;;;;;;;;;;7.10;99.90;;;;;;2067132;28;19936;-75
2024/03/11 02:54:29;;;;;;;;;;;7.10;99.90;;;;;;2067131;28;19917;-75
2024/03/11 02:55:30;;;;;;;;;;;7.10;99.90;;;;;;2067672;28;19943;-74
2024/03/11 02:56:31;;;;;;;;;;;7.10;99.90;;;;;;2067269;28;19914;-74
2024/03/11 02:57:35;;;;;;;;;;;7.00;99.90;;;;;;2067367;28;19918;-74
2024/03/11 02:58:37;;;;;;;;;;;7.10;99.90;;;;;;2067018;28;20016;-74
2024/03/11 02:59:40;;;;;;;;;;;7.10;99.90;;;;;;2058678;28;19922;-75
2024/03/11 03:00:40;;;;;;;;;;;7.10;99.90;;;;;;2066885;28;19918;-74
2024/03/11 03:01:41;;;;;;;;;;;7.10;99.90;;;;;;2067155;28;19953;-75
2024/03/11 03:02:42;;;;;;;;;;;7.00;99.90;;;;;;2067039;28;20486;-75
2024/03/11 03:03:42;;;;;;;;;;;7.00;99.90;;;;;;2066953;28;19922;-74
2024/03/11 03:04:43;;;;;;;;;;;7.00;99.90;;;;;;2067775;28;19917;-75
2024/03/11 03:05:43;;;;;;;;;;;7.10;99.90;;;;;;2067593;28;20013;-74
2024/03/11 03:06:44;;;;;;;;;;;7.20;99.90;;;;;;2066944;28;20506;-74
2024/03/11 03:07:46;;;;;;;;;;;7.20;99.90;;;;;;2067308;28;19922;-74
2024/03/11 03:08:46;;;;;;;;;;;7.20;99.90;;;;;;2062538;28;19909;-74
2024/03/11 03:09:47;;;;;;;;;;;7.20;99.90;;;;;;2067632;28;20292;-73
2024/03/11 03:10:48;;;;;;;;;;;7.20;99.90;;;;;;2067503;28;19929;-75
2024/03/11 03:11:48;;;;;;;;;;;7.20;99.90;;;;;;2066888;28;20437;-74
2024/03/11 03:12:49;;;;;;;;;;;7.20;99.90;;;;;;2067030;28;19913;-74
2024/03/11 03:13:50;;;;;;;;;;;7.10;99.90;;;;;;2067482;28;20224;-74
2024/03/11 03:14:50;;;;;;;;;;;7.10;99.90;;;;;;2067578;28;20330;-73
2024/03/11 03:15:51;;;;;;;;;;;7.10;99.90;;;;;;2066861;28;19910;-74
2024/03/11 03:16:51;;;;;;;;;;;7.10;99.90;;;;;;2066878;28;19914;-74
2024/03/11 03:17:52;;;;;;;;;;;7.10;99.90;;;;;;2066880;28;19920;-74
2024/03/11 03:18:54;;;;;;;;;;;7.10;99.90;;;;;;2067442;28;20368;-75
2024/03/11 03:19:55;;;;;;;;;;;7.10;99.90;;;;;;2067620;28;19975;-75
2024/03/11 03:20:55;;;;;;;;;;;7.10;99.90;;;;;;2066672;28;19920;-74
2024/03/11 03:21:56;;;;;;;;;;;7.10;99.90;;;;;;2058637;28;20312;-74
2024/03/11 03:22:56;;;;;;;;;;;7.10;99.90;;;;;;2066804;28;19990;-74
2024/03/11 03:23:57;;;;;;;;;;;7.20;99.90;;;;;;2066873;28;19975;-74
2024/03/11 03:24:57;;;;;;;;;;;7.20;99.90;;;;;;2066703;28;19939;-74
2024/03/11 03:25:58;;;;;;;;;;;7.10;99.90;;;;;;2066651;28;19933;-75
2024/03/11 03:26:58;;;;;;;;;;;7.20;99.90;;;;;;2067050;28;20392;-75
2024/03/11 03:28:02;;;;;;;;;;;7.20;99.90;;;;;;2067498;28;19923;-75
2024/03/11 03:29:02;;;;;;;;;;;7.20;99.90;;;;;;2067448;28;19914;-75
2024/03/11 03:30:03;;;;;;;;;;;7.20;99.90;;;;;;2066912;28;19955;-75
2024/03/11 03:31:04;;;;;;;;;;;7.20;99.90;;;;;;2066445;28;19937;-75
2024/03/11 03:32:05;;;;;;;;;;;7.20;99.90;;;;;;2063398;28;19914;-75
2024/03/11 03:33:05;;;;;;;;;;;7.20;99.90;;;;;;2067355;28;19914;-75
2024/03/11 03:34:06;;;;;;;;;;;7.30;99.90;;;;;;2058924;28;20489;-75
2024/03/11 03:35:07;;;;;;;;;;;7.30;99.90;;;;;;2058704;28;19937;-75
2024/03/11 03:36:08;;;;;;;;;;;7.30;99.90;;;;;;2067362;28;20194;-75
2024/03/11 03:37:09;;;;;;;;;;;7.40;99.90;;;;;;2066706;28;19923;-75
2024/03/11 03:38:09;;;;;;;;;;;7.50;99.90;;;;;;2067049;28;19929;-75
2024/03/11 03:39:10;;;;;;;;;;;7.50;99.90;;;;;;2067292;28;19917;-75
2024/03/11 03:40:15;;;;;;;;;;;7.50;99.90;;;;;;2067375;28;20073;-75
2024/03/11 03:41:16;;;;;;;;;;;7.50;99.90;;;;;;2067622;28;19914;-75
2024/03/11 03:42:17;;;;;;;;;;;7.50;99.90;;;;;;2062559;28;19957;-75
2024/03/11 03:43:17;;;;;;;;;;;7.60;99.90;;;;;;2059661;28;19914;-75
2024/03/11 03:44:18;;;;;;;;;;;7.60;99.90;;;;;;2068129;28;19917;-75
2024/03/11 03:45:18;;;;;;;;;;;7.60;99.90;;;;;;2069112;28;20369;-74
2024/03/11 03:46:20;;;;;;;;;;;7.60;99.90;;;;;;2069198;28;20817;-74
2024/03/11 03:47:22;;;;;;;;;;;7.60;99.90;;;;;;2069214;28;20442;-75
2024/03/11 03:48:22;;;;;;;;;;;7.60;99.90;;;;;;2069020;28;19917;-75
2024/03/11 03:49:22;;;;;;;;;;;7.60;99.90;;;;;;2069070;28;19924;-74
2024/03/11 03:50:24;;;;;;;;;;;7.60;99.90;;;;;;2069199;28;19917;-75
2024/03/11 03:51:25;;;;;;;;;;;7.60;99.90;;;;;;2068602;28;20399;-75
2024/03/11 03:52:25;;;;;;;;;;;7.60;99.90;;;;;;2060246;28;19937;-75
2024/03/11 03:53:25;;;;;;;;;;;7.60;99.90;;;;;;2060255;28;19949;-75
2024/03/11 03:54:27;;;;;;;;;;;7.60;99.90;;;;;;2069021;28;20314;-75
2024/03/11 03:55:29;;;;;;;;;;;7.60;99.90;;;;;;2069330;28;19917;-75
2024/03/11 03:56:30;;;;;;;;;;;7.60;99.90;;;;;;2069026;28;19941;-75
2024/03/11 03:57:31;;;;;;;;;;;7.70;99.90;;;;;;2068961;28;19918;-75
2024/03/11 03:58:32;;;;;;;;;;;7.70;99.90;;;;;;2068510;28;20312;-75
2024/03/11 03:59:33;;;;;;;;;;;7.70;99.90;;;;;;2068163;28;19975;-75
2024/03/11 04:00:35;;;;;;;;;;;7.70;99.90;;;;;;2068845;28;19918;-75
2024/03/11 04:01:35;;;;;;;;;;;7.70;99.90;;;;;;2065008;28;20027;-75
2024/03/11 04:02:36;;;;;;;;;;;7.80;99.90;;;;;;2068049;28;20185;-75
2024/03/11 04:03:36;;;;;;;;;;;7.90;99.90;;;;;;2068101;28;19949;-75
2024/03/11 04:04:38;;;;;;;;;;;7.90;99.90;;;;;;2068951;28;19983;-75
2024/03/11 04:05:39;;;;;;;;;;;7.90;99.90;;;;;;2068502;28;19924;-75
2024/03/11 04:06:39;;;;;;;;;;;7.90;99.90;;;;;;2068227;28;19937;-75
2024/03/11 04:07:42;;;;;;;;;;;7.90;99.90;;;;;;2068143;28;19917;-75
2024/03/11 04:08:43;;;;;;;;;;;7.90;99.90;;;;;;2068382;28;19971;-75
2024/03/11 04:09:44;;;;;;;;;;;7.90;99.90;;;;;;2068823;28;19988;-75
2024/03/11 04:10:44;;;;;;;;;;;7.90;99.90;;;;;;2068816;28;19920;-75
2024/03/11 04:11:45;;;;;;;;;;;7.90;99.90;;;;;;2067913;28;20382;-75
2024/03/11 04:12:47;;;;;;;;;;;7.90;99.90;;;;;;2063149;28;19913;-75
2024/03/11 04:13:49;;;;;;;;;;;7.90;99.90;;;;;;2068340;28;20053;-75
2024/03/11 04:14:51;;;;;;;;;;;8.00;99.90;;;;;;2060137;28;19918;-75
2024/03/11 04:15:52;;;;;;;;;;;8.00;99.90;;;;;;2068028;28;19949;-75
2024/03/11 04:16:52;;;;;;;;;;;8.00;99.90;;;;;;2069069;28;20102;-75
2024/03/11 04:17:53;;;;;;;;;;;8.00;99.90;;;;;;2068749;28;19918;-75
2024/03/11 04:18:54;;;;;;;;;;;8.00;99.90;;;;;;2068862;28;19918;-75
2024/03/11 04:19:56;;;;;;;;;;;8.00;99.90;;;;;;2068236;28;20139;-76
2024/03/11 04:20:56;;;;;;;;;;;8.00;99.90;;;;;;2067939;28;20380;-74
2024/03/11 04:21:57;;;;;;;;;;;8.00;99.90;;;;;;2067947;28;19922;-75
2024/03/11 04:22:58;;;;;;;;;;;7.90;99.90;;;;;;2060099;28;19917;-75
2024/03/11 04:23:59;;;;;;;;;;;7.90;99.90;;;;;;2067902;28;20008;-75
2024/03/11 04:24:59;;;;;;;;;;;8.00;99.90;;;;;;2068869;28;20974;-75
2024/03/11 04:26:01;;;;;;;;;;;8.00;99.90;;;;;;2068272;28;19972;-75
2024/03/11 04:27:02;;;;;;;;;;;8.00;99.90;;;;;;2059860;28;20388;-75
2024/03/11 04:28:03;;;;;;;;;;;8.00;99.90;;;;;;2068014;28;19913;-75
2024/03/11 04:29:05;;;;;;;;;;;8.00;99.90;;;;;;2067923;28;19918;-75
2024/03/11 04:30:06;;;;;;;;;;;8.00;99.90;;;;;;2068080;28;20646;-75
2024/03/11 04:31:07;;;;;;;;;;;8.00;99.90;;;;;;2068458;28;19921;-75
2024/03/11 04:32:09;;;;;;;;;;;8.10;99.90;;;;;;2063165;28;19924;-75
2024/03/11 04:33:11;;;;;;;;;;;8.00;99.90;;;;;;2068588;28;19917;-75
2024/03/11 04:34:11;;;;;;;;;;;8.10;99.90;;;;;;2068705;28;20439;-75
2024/03/11 04:35:12;;;;;;;;;;;8.10;99.90;;;;;;2059618;28;19918;-76
2024/03/11 04:36:13;;;;;;;;;;;8.10;99.90;;;;;;2059288;28;19917;-75
2024/03/11 04:37:13;;;;;;;;;;;8.10;99.90;;;;;;2069844;28;19924;-75
2024/03/11 04:38:15;;;;;;;;;;;8.10;99.90;;;;;;2059915;28;20032;-75
2024/03/11 04:39:15;;;;;;;;;;;8.10;99.90;;;;;;2059880;28;19917;-75
2024/03/11 04:40:16;;;;;;;;;;;8.10;99.90;;;;;;2067654;28;19922;-74
2024/03/11 04:41:16;;;;;;;;;;;8.20;99.90;;;;;;2068132;28;20303;-74
2024/03/11 04:42:17;;;;;;;;;;;8.20;99.90;;;;;;2063674;28;20399;-74
2024/03/11 04:43:18;;;;;;;;;;;8.20;99.90;;;;;;2059922;28;19957;-74
2024/03/11 04:44:19;;;;;;;;;;;8.20;99.90;;;;;;2067889;28;19925;-74
2024/03/11 04:45:20;;;;;;;;;;;8.20;99.90;;;;;;2068483;28;19918;-74
2024/03/11 04:46:21;;;;;;;;;;;8.10;99.90;;;;;;2068518;28;19928;-74
2024/03/11 04:47:22;;;;;;;;;;;8.20;99.90;;;;;;2068700;28;19917;-74
2024/03/11 04:48:23;;;;;;;;;;;8.20;99.90;;;;;;2067827;28;19913;-75
2024/03/11 04:49:24;;;;;;;;;;;8.20;99.90;;;;;;2059701;28;19968;-74
2024/03/11 04:50:26;;;;;;;;;;;8.20;99.90;;;;;;2067811;28;20387;-76
2024/03/11 04:51:26;;;;;;;;;;;8.20;99.90;;;;;;2068422;28;20368;-76
2024/03/11 04:52:26;;;;;;;;;;;8.20;99.90;;;;;;2068479;28;19948;-76
2024/03/11 04:53:27;;;;;;;;;;;8.20;99.90;;;;;;2067959;28;20343;-74
2024/03/11 04:54:27;;;;;;;;;;;8.30;99.90;;;;;;2067782;28;20415;-74
2024/03/11 04:55:28;;;;;;;;;;;8.30;99.90;;;;;;2066489;28;19917;-75
2024/03/11 04:56:31;;;;;;;;;;;8.30;99.90;;;;;;2067801;28;19920;-74
2024/03/11 04:57:31;;;;;;;;;;;8.30;99.90;;;;;;2067130;28;19964;-74
2024/03/11 04:58:32;;;;;;;;;;;8.30;99.90;;;;;;2067480;28;20366;-74
2024/03/11 04:59:32;;;;;;;;;;;8.30;99.90;;;;;;2067476;28;19921;-74
2024/03/11 05:00:33;;;;;;;;;;;8.40;99.90;;;;;;2067417;28;20307;-73
2024/03/11 05:01:33;;;;;;;;;;;8.40;99.90;;;;;;2067332;28;19913;-73
2024/03/11 05:02:38;;;;;;;;;;;8.30;99.90;;;;;;2068483;28;19968;-74
2024/03/11 05:03:39;;;;;;;;;;;8.30;99.90;;;;;;2068053;28;20976;-74
2024/03/11 05:04:39;;;;;;;;;;;8.20;99.90;;;;;;2067683;28;20426;-73
2024/03/11 05:05:40;;;;;;;;;;;8.20;99.90;;;;;;2067442;28;19928;-74
2024/03/11 05:06:41;;;;;;;;;;;8.20;99.90;;;;;;2067533;28;19929;-73
2024/03/11 05:07:41;;;;;;;;;;;8.20;99.90;;;;;;2067775;28;20300;-74
2024/03/11 05:08:42;;;;;;;;;;;8.20;99.90;;;;;;2067789;28;19917;-74
2024/03/11 05:09:42;;;;;;;;;;;8.20;99.90;;;;;;2059563;28;19992;-74
2024/03/11 05:10:43;;;;;;;;;;;8.10;99.90;;;;;;2067862;28;20043;-74
2024/03/11 05:11:43;;;;;;;;;;;8.10;99.90;;;;;;2068364;28;19921;-74
2024/03/11 05:12:44;;;;;;;;;;;8.10;99.90;;;;;;2067443;28;20299;-74
2024/03/11 05:13:49;;;;;;;;;;;8.20;99.90;;;;;;2067794;28;20217;-75
2024/03/11 05:14:50;;;;;;;;;;;8.20;99.90;;;;;;2067038;28;20374;-74
2024/03/11 05:15:50;;;;;;;;;;;8.20;99.90;;;;;;2067559;28;19961;-74
2024/03/11 05:16:54;;;;;;;;;;;8.20;99.90;;;;;;2067641;28;20007;-74
2024/03/11 05:17:55;;;;;;;;;;;8.30;99.90;;;;;;2067527;28;19944;-74
2024/03/11 05:18:55;;;;;;;;;;;8.30;99.90;;;;;;2046478;28;19992;-74
2024/03/11 05:19:56;;;;;;;;;;;8.30;99.90;;;;;;2051509;28;20431;-74
2024/03/11 05:20:57;;;;;;;;;;;8.40;99.90;;;;;;2059598;28;19918;-74
2024/03/11 05:21:58;;;;;;;;;;;8.40;99.90;;;;;;2059637;28;20347;-73
2024/03/11 05:22:58;;;;;;;;;;;8.50;99.90;;;;;;2067323;28;19921;-74
2024/03/11 05:23:59;;;;;;;;;;;8.50;99.90;;;;;;2067596;28;20425;-73
2024/03/11 05:24:59;;;;;;;;;;;8.50;99.90;;;;;;2068540;28;19955;-73
2024/03/11 05:26:00;;;;;;;;;;;8.50;99.90;;;;;;2068469;28;19917;-74
2024/03/11 05:27:00;;;;;;;;;;;8.50;99.90;;;;;;2068438;28;19917;-74
2024/03/11 05:28:01;;;;;;;;;;;8.40;99.90;;;;;;2068480;28;20374;-73
2024/03/11 05:29:01;;;;;;;;;;;8.40;99.90;;;;;;2068321;28;19967;-73
2024/03/11 05:30:04;;;;;;;;;;;8.40;99.90;;;;;;2068278;28;19910;-73
2024/03/11 05:31:04;;;;;;;;;;;8.40;99.90;;;;;;2067257;28;19953;-73
2024/03/11 05:32:08;;;;;;;;;;;8.40;99.90;;;;;;2055584;28;20025;-74
2024/03/11 05:33:09;;;;;;;;;;;8.30;99.90;;;;;;2067623;28;19914;-74
2024/03/11 05:34:11;;;;;;;;;;;8.30;99.90;;;;;;2068705;28;20421;-74
2024/03/11 05:35:13;;;;;;;;;;;8.30;99.90;;;;;;2067846;28;20030;-74
2024/03/11 05:36:14;;;;;;;;;;;8.30;99.90;;;;;;2067877;28;19964;-73
2024/03/11 05:37:15;;;;;;;;;;;8.30;99.90;;;;;;2068413;28;19917;-74
2024/03/11 05:38:15;;;;;;;;;;;8.30;99.90;;;;;;2076638;28;20015;-74
2024/03/11 05:39:16;;;;;;;;;;;8.20;99.90;;;;;;2068341;28;20419;-72
2024/03/11 05:40:18;;;;;;;;;;;8.20;99.90;;;;;;2067394;28;20358;-74
2024/03/11 05:41:18;;;;;;;;;;;8.20;99.90;;;;;;2065949;28;19921;-73
2024/03/11 05:42:19;;;;;;;;;;;8.20;99.90;;;;;;2067498;28;19922;-74
2024/03/11 05:43:22;;;;;;;;;;;8.10;99.90;;;;;;2068121;28;19961;-73
2024/03/11 05:44:24;;;;;;;;;;;8.20;99.90;;;;;;2067330;28;19962;-74
2024/03/11 05:45:25;;;;;;;;;;;8.10;99.90;;;;;;2066255;28;19914;-74
2024/03/11 05:46:25;;;;;;;;;;;8.20;99.90;;;;;;2064638;28;19928;-72
2024/03/11 05:47:26;;;;;;;;;;;8.20;99.90;;;;;;2065308;28;20015;-73
2024/03/11 05:48:26;;;;;;;;;;;8.20;99.90;;;;;;2067700;28;19918;-74
2024/03/11 05:49:28;;;;;;;;;;;8.20;99.90;;;;;;2067745;28;20332;-75
2024/03/11 05:50:29;;;;;;;;;;;8.20;99.90;;;;;;2067785;28;19913;-75
2024/03/11 05:51:31;;;;;;;;;;;8.30;99.90;;;;;;2067755;28;20004;-74
2024/03/11 05:52:32;;;;;;;;;;;8.30;99.90;;;;;;2068038;28;19917;-75
2024/03/11 05:53:37;;;;;;;;;;;8.30;99.90;;;;;;2068050;28;19924;-72
2024/03/11 05:54:50;;;;;;;;;;;8.30;99.90;;;;;;2067173;28;20503;-73
2024/03/11 05:55:50;;;;;;;;;;;8.30;99.90;;;;;;2066199;28;19929;-74
2024/03/11 05:56:54;;;;;;;;;;;8.30;99.90;;;;;;2067710;28;19921;-75
2024/03/11 05:57:54;;;;;;;;;;;8.30;99.90;;;;;;2067905;28;19921;-74
2024/03/11 05:58:55;;;;;;;;;;;8.30;99.90;;;;;;2067152;28;19925;-74
2024/03/11 05:59:56;;;;;;;;;;;8.30;99.90;;;;;;2067100;28;19937;-75
2024/03/11 06:00:57;;;;;;;;;;;8.30;99.90;;;;;;2067749;28;20426;-75
2024/03/11 06:01:58;;;;;;;;;;;8.30;99.90;;;;;;2067374;28;20448;-75